METAR Data
IDs: Format: Raw Decoded Include TAF

Data at: 0038 UTC 19 Nov 2018

PAHY 182256Z AUTO 12013KT 10SM OVC009 10/08 A3008 RMK AO2 SLP285 T01000083 $
PAHY 182006Z AUTO 11012KT 4SM BR BKN007 OVC024 09/09 A3010 RMK AO2 $
PAHY 181930Z AUTO 11015KT 9SM BKN007 OVC022 10/09 A3011 RMK AO2 $
PAHY 181829Z AUTO 11013KT 4SM BR OVC015 11/09 A3012 RMK AO2 $
PAHY 181756Z AUTO 10013KT 10SM FEW010 BKN015 OVC032 11/09 A3011 RMK AO2 SLP297 60000 T01060089 10111 20106 52003 $
PAHY 181728Z AUTO 11014KT 10SM SCT007 BKN013 OVC024 11/09 A3011 RMK AO2 $
PAHY 181713Z AUTO 11016G20KT 7SM SCT007 BKN019 OVC026 11/09 A3011 RMK AO2 $
PAHY 181656Z AUTO 10016KT 8SM SCT007 BKN010 OVC018 11/09 A3011 RMK AO2 SLP297 T01060094 $
PAHY 181511Z AUTO 11015KT 10SM FEW014 OVC020 11/09 A3010 RMK AO2 $
PAHY 181456Z AUTO 11014KT 10SM BKN014 OVC020 11/09 A3010 RMK AO2 RAB12E22 SLP293 P0000 60000 T01060094 50000 $
PAHY 181256Z AUTO 11013KT 10SM SCT012 OVC017 11/09 A3010 RMK AO2 SLP294 T01060094 $
PAHY 181136Z AUTO 11014KT 10SM BKN013 OVC022 11/09 A3010 RMK AO2 $
PAHY 180956Z AUTO 11014KT 9SM SCT009 OVC028 11/09 A3010 RMK AO2 SLP294 T01060094 $
PAHY 180619Z AUTO 11014KT 10SM BKN011 OVC024 10/09 A3009 RMK AO2 $
PAHY 180556Z AUTO 11012KT 10SM BKN009 OVC022 10/09 A3009 RMK AO2 RAE52 CIG 008V012 SLP290 P0000 60001 T01000094 10100 20094 56005 $
PAHY 180456Z AUTO 09014KT 7SM -RA FEW007 OVC013 09/09 A3010 RMK AO2 SLP291 P0000 T00940089 $
PAHY 180414Z AUTO 11018G24KT 8SM -RA SCT007 OVC011 09/09 A3010 RMK AO2 P0000 $
PAHY 172356Z AUTO 10017G23KT 2 1/2SM -RA BR SCT008 OVC015 09/09 A3013 RMK AO2 PK WND 11026/2258 VIS 1 3/4V3 SLP304 P0000 60003 T00940089 10094 20078 56014 $
PAHY 172242Z AUTO 11022G31KT 2 1/2SM -RA BR SCT008 OVC015 09/08 A3014 RMK AO2 PK WND 11031/2233 P0000 $
PAHY 172238Z AUTO 10024G31KT 3SM -RA BR BKN008 OVC015 09/08 A3014 RMK AO2 PK WND 11031/2233 CIG 007V011 P0000 $
PAHY 172047Z AUTO 11015G25KT 2SM -RA BR SCT010 OVC019 09/08 A3018 RMK AO2 PK WND 11030/2002 P0001 $
PAHY 172027Z AUTO 10016KT 2SM -RA BR BKN010 OVC019 09/07 A3018 RMK AO2 PK WND 11030/2002 CIG 008V012 P0000 $
PAHY 171556Z AUTO 11010G16KT 6SM -RA BR OVC010 07/06 A3022 RMK AO2 SLP334 P0000 T00720061 $
PAHY 171356Z AUTO 13011G17KT 090V150 10SM OVC014 07/05 A3023 RMK AO2 RAE03B29E45 SLP339 P0000 T00720050 $